sensor_id;sensor_type;location;lat;lon;timestamp;pressure;altitude;pressure_sealevel;temperature;humidity
66887;BME280;67239;51.680;5.976;2023-03-20T00:02:22;101851.19;;;8.70;86.31
66887;BME280;67239;51.680;5.976;2023-03-20T00:04:49;101849.47;;;8.66;86.19
66887;BME280;67239;51.680;5.976;2023-03-20T00:07:17;101853.84;;;8.66;86.28
66887;BME280;67239;51.680;5.976;2023-03-20T00:09:44;101851.22;;;8.64;86.29
66887;BME280;67239;51.680;5.976;2023-03-20T00:12:19;101845.13;;;8.64;86.33
66887;BME280;67239;51.680;5.976;2023-03-20T00:14:51;101839.84;;;8.62;86.42
66887;BME280;67239;51.680;5.976;2023-03-20T00:17:20;101836.34;;;8.63;86.38
66887;BME280;67239;51.680;5.976;2023-03-20T00:19:47;101835.47;;;8.63;86.48
66887;BME280;67239;51.680;5.976;2023-03-20T00:22:14;101838.09;;;8.64;86.35
66887;BME280;67239;51.680;5.976;2023-03-20T00:24:41;101835.44;;;8.66;86.29
66887;BME280;67239;51.680;5.976;2023-03-20T00:27:13;101831.97;;;8.64;86.32
66887;BME280;67239;51.680;5.976;2023-03-20T00:29:42;101836.31;;;8.65;86.35
66887;BME280;67239;51.680;5.976;2023-03-20T00:32:11;101839.84;;;8.65;86.37
66887;BME280;67239;51.680;5.976;2023-03-20T00:34:39;101838.09;;;8.61;86.14
66887;BME280;67239;51.680;5.976;2023-03-20T00:37:07;101837.25;;;8.59;86.34
66887;BME280;67239;51.680;5.976;2023-03-20T00:39:37;101836.41;;;8.57;86.52
66887;BME280;67239;51.680;5.976;2023-03-20T00:42:06;101836.38;;;8.59;86.57
66887;BME280;67239;51.680;5.976;2023-03-20T00:44:48;101832.88;;;8.58;86.41
66887;BME280;67239;51.680;5.976;2023-03-20T00:47:23;101829.38;;;8.56;86.41
66887;BME280;67239;51.680;5.976;2023-03-20T00:49:52;101829.38;;;8.56;86.55
66887;BME280;67239;51.680;5.976;2023-03-20T00:52:21;101828.50;;;8.55;86.27
66887;BME280;67239;51.680;5.976;2023-03-20T00:54:50;101826.78;;;8.54;86.44
66887;BME280;67239;51.680;5.976;2023-03-20T00:57:27;101825.88;;;8.54;86.21
66887;BME280;67239;51.680;5.976;2023-03-20T01:00:29;101817.16;;;8.53;86.65
66887;BME280;67239;51.680;5.976;2023-03-20T01:02:57;101818.91;;;8.54;86.23
66887;BME280;67239;51.680;5.976;2023-03-20T01:05:25;101815.38;;;8.54;86.17
66887;BME280;67239;51.680;5.976;2023-03-20T01:07:54;101817.16;;;8.53;86.12
66887;BME280;67239;51.680;5.976;2023-03-20T01:10:27;101810.13;;;8.52;86.22
66887;BME280;67239;51.680;5.976;2023-03-20T01:12:59;101812.75;;;8.52;86.54
66887;BME280;67239;51.680;5.976;2023-03-20T01:15:31;101804.88;;;8.52;86.14
66887;BME280;67239;51.680;5.976;2023-03-20T01:17:59;101804.00;;;8.53;86.31
66887;BME280;67239;51.680;5.976;2023-03-20T01:20:28;101813.63;;;8.53;86.37
66887;BME280;67239;51.680;5.976;2023-03-20T01:22:56;101808.38;;;8.51;86.30
66887;BME280;67239;51.680;5.976;2023-03-20T01:25:23;101837.31;;;8.51;86.37
66887;BME280;67239;51.680;5.976;2023-03-20T01:27:53;101846.97;;;8.48;86.33
66887;BME280;67239;51.680;5.976;2023-03-20T01:30:29;101849.56;;;8.49;86.64
66887;BME280;67239;51.680;5.976;2023-03-20T01:32:59;101854.81;;;8.49;86.75
66887;BME280;67239;51.680;5.976;2023-03-20T01:35:28;101852.22;;;8.48;86.77
66887;BME280;67239;51.680;5.976;2023-03-20T01:38:00;101853.94;;;8.46;86.58
66887;BME280;67239;51.680;5.976;2023-03-20T01:40:42;101850.41;;;8.45;86.88
66887;BME280;67239;51.680;5.976;2023-03-20T01:43:18;101846.97;;;8.40;86.78
66887;BME280;67239;51.680;5.976;2023-03-20T01:45:59;101839.94;;;8.40;86.88
66887;BME280;67239;51.680;5.976;2023-03-20T01:51:19;101867.09;;;8.39;86.64
66887;BME280;67239;51.680;5.976;2023-03-20T01:56:39;101853.06;;;8.40;86.74
66887;BME280;67239;51.680;5.976;2023-03-20T01:59:16;101850.44;;;8.40;86.66
66887;BME280;67239;51.680;5.976;2023-03-20T02:01:49;101852.22;;;8.40;86.63
66887;BME280;67239;51.680;5.976;2023-03-20T02:04:24;101855.72;;;8.39;86.46
66887;BME280;67239;51.680;5.976;2023-03-20T02:07:04;101864.47;;;8.39;86.42
66887;BME280;67239;51.680;5.976;2023-03-20T02:09:40;101861.84;;;8.38;86.60
66887;BME280;67239;51.680;5.976;2023-03-20T02:12:14;101846.97;;;8.37;86.60
66887;BME280;67239;51.680;5.976;2023-03-20T02:14:44;101841.72;;;8.37;86.53
66887;BME280;67239;51.680;5.976;2023-03-20T02:17:21;101846.09;;;8.36;86.35
66887;BME280;67239;51.680;5.976;2023-03-20T02:20:09;101839.97;;;8.34;86.23
66887;BME280;67239;51.680;5.976;2023-03-20T02:35:16;101833.13;;;8.01;85.61
66887;BME280;67239;51.680;5.976;2023-03-20T02:40:47;101834.94;;;7.88;85.77
66887;BME280;67239;51.680;5.976;2023-03-20T02:44:04;101836.69;;;7.80;85.75
66887;BME280;67239;51.680;5.976;2023-03-20T02:46:46;101845.44;;;7.74;85.95
66887;BME280;67239;51.680;5.976;2023-03-20T02:50:01;101851.56;;;7.68;86.17
66887;BME280;67239;51.680;5.976;2023-03-20T02:56:23;101854.22;;;7.57;86.41
66887;BME280;67239;51.680;5.976;2023-03-20T03:02:09;101850.75;;;7.52;86.71
66887;BME280;67239;51.680;5.976;2023-03-20T03:04:50;101847.25;;;7.52;86.85
66887;BME280;67239;51.680;5.976;2023-03-20T03:07:24;101833.25;;;7.48;86.67
66887;BME280;67239;51.680;5.976;2023-03-20T03:10:05;101837.66;;;7.48;86.79
66887;BME280;67239;51.680;5.976;2023-03-20T03:12:39;101829.75;;;7.46;86.97
66887;BME280;67239;51.680;5.976;2023-03-20T03:15:15;101825.41;;;7.42;86.83
66887;BME280;67239;51.680;5.976;2023-03-20T03:17:51;101826.28;;;7.41;86.86
66887;BME280;67239;51.680;5.976;2023-03-20T03:20:31;101828.91;;;7.38;86.85
66887;BME280;67239;51.680;5.976;2023-03-20T03:23:01;101828.03;;;7.36;87.10
66887;BME280;67239;51.680;5.976;2023-03-20T03:25:35;101828.91;;;7.32;86.93
66887;BME280;67239;51.680;5.976;2023-03-20T03:31:10;101817.53;;;7.26;87.08
66887;BME280;67239;51.680;5.976;2023-03-20T03:33:44;101818.44;;;7.27;86.98
66887;BME280;67239;51.680;5.976;2023-03-20T03:39:11;101809.69;;;7.22;87.12
66887;BME280;67239;51.680;5.976;2023-03-20T03:42:04;101791.34;;;7.20;87.19
66887;BME280;67239;51.680;5.976;2023-03-20T03:44:58;101778.19;;;7.19;87.32
66887;BME280;67239;51.680;5.976;2023-03-20T03:47:34;101783.47;;;7.17;87.37
66887;BME280;67239;51.680;5.976;2023-03-20T03:50:34;101784.31;;;7.18;87.12
66887;BME280;67239;51.680;5.976;2023-03-20T03:53:20;101785.22;;;7.17;87.37
66887;BME280;67239;51.680;5.976;2023-03-20T03:55:54;101780.81;;;7.14;87.29
66887;BME280;67239;51.680;5.976;2023-03-20T03:58:36;101777.34;;;7.13;87.12
66887;BME280;67239;51.680;5.976;2023-03-20T04:01:09;101782.59;;;7.13;87.31
66887;BME280;67239;51.680;5.976;2023-03-20T04:03:44;101772.97;;;7.12;87.56
66887;BME280;67239;51.680;5.976;2023-03-20T04:06:15;101769.50;;;7.12;87.59
66887;BME280;67239;51.680;5.976;2023-03-20T04:08:44;101772.97;;;7.12;87.62
66887;BME280;67239;51.680;5.976;2023-03-20T04:11:14;101783.44;;;7.14;87.32
66887;BME280;67239;51.680;5.976;2023-03-20T04:14:02;101779.09;;;7.10;87.46
66887;BME280;67239;51.680;5.976;2023-03-20T04:16:49;101793.09;;;7.09;87.58
66887;BME280;67239;51.680;5.976;2023-03-20T04:19:36;101787.84;;;7.06;87.29
66887;BME280;67239;51.680;5.976;2023-03-20T04:22:23;101795.69;;;7.01;87.50
66887;BME280;67239;51.680;5.976;2023-03-20T04:25:29;101786.09;;;6.98;87.34
66887;BME280;67239;51.680;5.976;2023-03-20T04:28:16;101768.63;;;6.91;87.31
66887;BME280;67239;51.680;5.976;2023-03-20T04:31:14;101772.09;;;6.89;87.45
66887;BME280;67239;51.680;5.976;2023-03-20T04:34:21;101775.59;;;6.86;87.73
66887;BME280;67239;51.680;5.976;2023-03-20T04:37:19;101769.47;;;6.84;87.44
66887;BME280;67239;51.680;5.976;2023-03-20T04:40:14;101764.25;;;6.82;87.67
66887;BME280;67239;51.680;5.976;2023-03-20T04:43:02;101768.59;;;6.82;87.85
66887;BME280;67239;51.680;5.976;2023-03-20T04:45:48;101767.75;;;6.81;87.80
66887;BME280;67239;51.680;5.976;2023-03-20T04:48:35;101772.09;;;6.79;87.77
66887;BME280;67239;51.680;5.976;2023-03-20T04:51:22;101779.97;;;6.79;87.86
66887;BME280;67239;51.680;5.976;2023-03-20T04:54:11;101764.25;;;6.75;87.54
66887;BME280;67239;51.680;5.976;2023-03-20T04:56:58;101763.34;;;6.73;87.89
66887;BME280;67239;51.680;5.976;2023-03-20T04:59:45;101763.38;;;6.70;87.70
66887;BME280;67239;51.680;5.976;2023-03-20T05:02:32;101755.50;;;6.65;87.83
66887;BME280;67239;51.680;5.976;2023-03-20T05:05:18;101755.50;;;6.62;87.92
66887;BME280;67239;51.680;5.976;2023-03-20T05:08:05;101766.00;;;6.60;88.09
66887;BME280;67239;51.680;5.976;2023-03-20T05:10:55;101762.47;;;6.60;88.35
66887;BME280;67239;51.680;5.976;2023-03-20T05:13:40;101766.00;;;6.60;88.42
66887;BME280;67239;51.680;5.976;2023-03-20T05:16:26;101766.84;;;6.62;88.47
66887;BME280;67239;51.680;5.976;2023-03-20T05:18:59;101767.72;;;6.64;88.44
66887;BME280;67239;51.680;5.976;2023-03-20T05:21:44;101770.34;;;6.67;88.27
66887;BME280;67239;51.680;5.976;2023-03-20T05:24:26;101763.34;;;6.68;88.35
66887;BME280;67239;51.680;5.976;2023-03-20T05:27:07;101775.63;;;6.71;88.11
66887;BME280;67239;51.680;5.976;2023-03-20T05:30:03;101775.63;;;6.71;88.10
66887;BME280;67239;51.680;5.976;2023-03-20T05:32:50;101765.13;;;6.72;87.91
66887;BME280;67239;51.680;5.976;2023-03-20T05:35:33;101768.59;;;6.73;87.97
66887;BME280;67239;51.680;5.976;2023-03-20T05:38:18;101759.88;;;6.75;88.03
66887;BME280;67239;51.680;5.976;2023-03-20T05:41:01;101756.38;;;6.78;88.31
66887;BME280;67239;51.680;5.976;2023-03-20T05:44:00;101771.22;;;6.90;88.65
66887;BME280;67239;51.680;5.976;2023-03-20T05:46:46;101767.72;;;7.00;88.78
66887;BME280;67239;51.680;5.976;2023-03-20T05:49:24;101768.59;;;7.07;88.56
66887;BME280;67239;51.680;5.976;2023-03-20T05:52:19;101761.59;;;7.10;88.48
66887;BME280;67239;51.680;5.976;2023-03-20T05:55:06;101759.84;;;7.19;88.40
66887;BME280;67239;51.680;5.976;2023-03-20T05:57:46;101782.59;;;7.26;88.31
66887;BME280;67239;51.680;5.976;2023-03-20T06:00:27;101772.94;;;7.31;87.99
66887;BME280;67239;51.680;5.976;2023-03-20T06:03:32;101785.16;;;7.38;87.74
66887;BME280;67239;51.680;5.976;2023-03-20T06:06:07;101790.41;;;7.44;87.28
66887;BME280;67239;51.680;5.976;2023-03-20T06:08:34;101793.03;;;7.49;87.29
66887;BME280;67239;51.680;5.976;2023-03-20T06:11:03;101786.00;;;7.53;86.92
66887;BME280;67239;51.680;5.976;2023-03-20T06:13:32;101790.41;;;7.57;86.64
66887;BME280;67239;51.680;5.976;2023-03-20T06:16:00;101792.13;;;7.59;86.12
66887;BME280;67239;51.680;5.976;2023-03-20T06:18:28;101791.25;;;7.59;86.00
66887;BME280;67239;51.680;5.976;2023-03-20T06:20:56;101794.75;;;7.61;85.75
66887;BME280;67239;51.680;5.976;2023-03-20T06:23:26;101793.84;;;7.64;85.12
66887;BME280;67239;51.680;5.976;2023-03-20T06:25:53;101800.88;;;7.61;84.99
66887;BME280;67239;51.680;5.976;2023-03-20T06:28:21;101799.13;;;7.56;84.71
66887;BME280;67239;51.680;5.976;2023-03-20T06:30:55;101807.88;;;7.49;84.62
66887;BME280;67239;51.680;5.976;2023-03-20T06:33:23;101808.75;;;7.46;84.62
66887;BME280;67239;51.680;5.976;2023-03-20T06:35:56;101807.91;;;7.45;84.73
66887;BME280;67239;51.680;5.976;2023-03-20T06:38:25;101810.50;;;7.47;84.47
66887;BME280;67239;51.680;5.976;2023-03-20T06:40:52;101801.78;;;7.48;84.23
66887;BME280;67239;51.680;5.976;2023-03-20T06:43:20;101806.16;;;7.49;84.22
66887;BME280;67239;51.680;5.976;2023-03-20T06:45:51;101798.25;;;7.55;84.18
66887;BME280;67239;51.680;5.976;2023-03-20T06:48:24;101808.72;;;7.63;84.24
66887;BME280;67239;51.680;5.976;2023-03-20T06:50:52;101806.09;;;7.69;84.29
66887;BME280;67239;51.680;5.976;2023-03-20T06:53:22;101808.69;;;7.74;84.15
66887;BME280;67239;51.680;5.976;2023-03-20T06:56:03;101816.56;;;7.78;84.08
66887;BME280;67239;51.680;5.976;2023-03-20T06:58:30;101813.94;;;7.85;83.73
66887;BME280;67239;51.680;5.976;2023-03-20T07:00:57;101810.41;;;7.87;83.17
66887;BME280;67239;51.680;5.976;2023-03-20T07:03:24;101811.25;;;7.91;83.25
66887;BME280;67239;51.680;5.976;2023-03-20T07:05:52;101813.88;;;7.96;83.42
66887;BME280;67239;51.680;5.976;2023-03-20T07:08:21;101817.34;;;8.02;83.13
66887;BME280;67239;51.680;5.976;2023-03-20T07:10:49;101827.84;;;8.05;82.27
66887;BME280;67239;51.680;5.976;2023-03-20T07:13:15;101830.47;;;8.05;81.98
66887;BME280;67239;51.680;5.976;2023-03-20T07:15:43;101827.84;;;8.05;81.92
66887;BME280;67239;51.680;5.976;2023-03-20T07:18:31;101831.34;;;8.06;81.73
66887;BME280;67239;51.680;5.976;2023-03-20T07:21:00;101831.34;;;8.06;81.60
66887;BME280;67239;51.680;5.976;2023-03-20T07:23:31;101842.72;;;8.08;81.77
66887;BME280;67239;51.680;5.976;2023-03-20T07:26:00;101833.97;;;8.12;81.37
66887;BME280;67239;51.680;5.976;2023-03-20T07:28:29;101837.44;;;8.13;81.36
66887;BME280;67239;51.680;5.976;2023-03-20T07:31:18;101839.19;;;8.15;81.58
66887;BME280;67239;51.680;5.976;2023-03-20T07:33:52;101834.81;;;8.19;80.99
66887;BME280;67239;51.680;5.976;2023-03-20T07:36:19;101839.19;;;8.18;80.59
66887;BME280;67239;51.680;5.976;2023-03-20T07:38:48;101837.44;;;8.17;80.60
66887;BME280;67239;51.680;5.976;2023-03-20T07:41:15;101837.44;;;8.17;80.20
66887;BME280;67239;51.680;5.976;2023-03-20T07:43:51;101850.56;;;8.16;80.06
66887;BME280;67239;51.680;5.976;2023-03-20T07:46:42;101844.44;;;8.15;80.19
66887;BME280;67239;51.680;5.976;2023-03-20T07:49:10;101838.31;;;8.19;80.12
66887;BME280;67239;51.680;5.976;2023-03-20T07:51:37;101842.66;;;8.23;80.20
66887;BME280;67239;51.680;5.976;2023-03-20T07:54:04;101839.16;;;8.26;79.79
66887;BME280;67239;51.680;5.976;2023-03-20T07:56:31;101845.28;;;8.28;79.61
66887;BME280;67239;51.680;5.976;2023-03-20T07:58:58;101840.88;;;8.29;79.79
66887;BME280;67239;51.680;5.976;2023-03-20T08:01:25;101843.47;;;8.33;80.03
66887;BME280;67239;51.680;5.976;2023-03-20T08:03:52;101845.19;;;8.40;80.17
66887;BME280;67239;51.680;5.976;2023-03-20T08:06:20;101838.19;;;8.47;79.67
66887;BME280;67239;51.680;5.976;2023-03-20T08:08:47;101839.06;;;8.52;79.74
66887;BME280;67239;51.680;5.976;2023-03-20T08:11:18;101836.38;;;8.59;79.19
66887;BME280;67239;51.680;5.976;2023-03-20T08:13:45;101842.50;;;8.64;79.42
66887;BME280;67239;51.680;5.976;2023-03-20T08:16:12;101843.31;;;8.69;79.24
66887;BME280;67239;51.680;5.976;2023-03-20T08:18:39;101849.44;;;8.74;78.84
66887;BME280;67239;51.680;5.976;2023-03-20T08:21:08;101843.28;;;8.77;78.86
66887;BME280;67239;51.680;5.976;2023-03-20T08:23:35;101843.25;;;8.80;77.95
66887;BME280;67239;51.680;5.976;2023-03-20T08:26:02;101838.88;;;8.80;78.01
66887;BME280;67239;51.680;5.976;2023-03-20T08:28:29;101848.47;;;8.83;77.42
66887;BME280;67239;51.680;5.976;2023-03-20T08:31:13;101842.38;;;8.82;77.69
66887;BME280;67239;51.680;5.976;2023-03-20T08:33:43;101840.56;;;8.86;77.86
66887;BME280;67239;51.680;5.976;2023-03-20T08:36:12;101841.41;;;8.91;77.81
66887;BME280;67239;51.680;5.976;2023-03-20T08:38:41;101851.00;;;8.98;77.46
66887;BME280;67239;51.680;5.976;2023-03-20T08:41:08;101842.19;;;9.02;77.10
66887;BME280;67239;51.680;5.976;2023-03-20T08:43:36;101844.78;;;9.10;76.97
66887;BME280;67239;51.680;5.976;2023-03-20T08:46:03;101833.31;;;9.19;76.75
66887;BME280;67239;51.680;5.976;2023-03-20T08:48:31;101837.59;;;9.28;77.19
66887;BME280;67239;51.680;5.976;2023-03-20T08:50:58;101845.41;;;9.37;77.05
66887;BME280;67239;51.680;5.976;2023-03-20T08:53:25;101841.84;;;9.46;77.03
66887;BME280;67239;51.680;5.976;2023-03-20T08:55:53;101834.72;;;9.56;76.84
66887;BME280;67239;51.680;5.976;2023-03-20T08:58:20;101832.88;;;9.64;76.07
66887;BME280;67239;51.680;5.976;2023-03-20T09:00:48;101830.19;;;9.70;76.11
66887;BME280;67239;51.680;5.976;2023-03-20T09:03:17;101825.69;;;9.80;75.99
66887;BME280;67239;51.680;5.976;2023-03-20T09:05:48;101822.09;;;9.87;75.20
66887;BME280;67239;51.680;5.976;2023-03-20T09:08:18;101823.78;;;9.93;75.03
66887;BME280;67239;51.680;5.976;2023-03-20T09:10:47;101828.97;;;9.99;73.98
66887;BME280;67239;51.680;5.976;2023-03-20T09:13:17;101830.75;;;9.99;73.53
66887;BME280;67239;51.680;5.976;2023-03-20T09:15:54;101828.97;;;9.99;73.35
66887;BME280;67239;51.680;5.976;2023-03-20T09:18:23;101829.84;;;9.98;72.95
66887;BME280;67239;51.680;5.976;2023-03-20T09:20:50;101828.09;;;9.97;73.07
66887;BME280;67239;51.680;5.976;2023-03-20T09:23:17;101836.00;;;9.99;72.74
66887;BME280;67239;51.680;5.976;2023-03-20T09:25:45;101825.47;;;9.99;72.64
66887;BME280;67239;51.680;5.976;2023-03-20T09:28:13;101828.06;;;10.00;72.40
66887;BME280;67239;51.680;5.976;2023-03-20T09:30:40;101843.03;;;10.00;73.06
66887;BME280;67239;51.680;5.976;2023-03-20T09:33:09;101843.91;;;9.99;72.34
66887;BME280;67239;51.680;5.976;2023-03-20T09:35:37;101836.94;;;9.96;72.63
66887;BME280;67239;51.680;5.976;2023-03-20T09:38:04;101830.72;;;10.00;73.06
66887;BME280;67239;51.680;5.976;2023-03-20T09:40:44;101835.06;;;10.03;73.14
66887;BME280;67239;51.680;5.976;2023-03-20T09:43:41;101839.44;;;10.05;72.29
66887;BME280;67239;51.680;5.976;2023-03-20T09:46:32;101842.09;;;10.02;72.77
66887;BME280;67239;51.680;5.976;2023-03-20T09:55:35;101843.81;;;10.08;73.99
66887;BME280;67239;51.680;5.976;2023-03-20T09:58:30;101845.59;;;10.04;73.81
66887;BME280;67239;51.680;5.976;2023-03-20T10:01:02;101850.91;;;10.01;74.15
66887;BME280;67239;51.680;5.976;2023-03-20T10:03:42;101850.91;;;10.01;73.79
66887;BME280;67239;51.680;5.976;2023-03-20T10:06:18;101853.63;;;9.95;73.99
66887;BME280;67239;51.680;5.976;2023-03-20T10:08:45;101856.25;;;9.95;74.32
66887;BME280;67239;51.680;5.976;2023-03-20T10:14:40;101852.63;;;10.04;74.37
66887;BME280;67239;51.680;5.976;2023-03-20T10:21:20;101852.50;;;10.15;72.97
66887;BME280;67239;51.680;5.976;2023-03-20T10:23:59;101852.56;;;10.08;72.78
66887;BME280;67239;51.680;5.976;2023-03-20T10:26:33;101857.06;;;10.00;71.57
66887;BME280;67239;51.680;5.976;2023-03-20T10:29:22;101856.34;;;9.87;72.34
66887;BME280;67239;51.680;5.976;2023-03-20T10:35:10;101849.38;;;9.78;72.52
66887;BME280;67239;51.680;5.976;2023-03-20T10:37:48;101845.72;;;9.95;72.56
66887;BME280;67239;51.680;5.976;2023-03-20T10:40:34;101842.75;;;10.20;71.98
66887;BME280;67239;51.680;5.976;2023-03-20T10:43:13;101834.59;;;10.41;72.57
66887;BME280;67239;51.680;5.976;2023-03-20T10:45:59;101832.59;;;10.59;72.22
66887;BME280;67239;51.680;5.976;2023-03-20T10:48:40;101834.16;;;10.72;72.13
66887;BME280;67239;51.680;5.976;2023-03-20T10:51:21;101829.59;;;10.84;70.84
66887;BME280;67239;51.680;5.976;2023-03-20T10:54:01;101833.09;;;10.84;70.19
66887;BME280;67239;51.680;5.976;2023-03-20T10:56:36;101827.81;;;10.86;69.85
66887;BME280;67239;51.680;5.976;2023-03-20T10:59:20;101833.06;;;10.87;69.02
66887;BME280;67239;51.680;5.976;2023-03-20T11:01:51;101829.56;;;10.85;69.38
66887;BME280;67239;51.680;5.976;2023-03-20T11:04:18;101835.69;;;10.87;68.93
66887;BME280;67239;51.680;5.976;2023-03-20T11:06:51;101829.59;;;10.84;68.62
66887;BME280;67239;51.680;5.976;2023-03-20T11:09:26;101829.69;;;10.79;69.08
66887;BME280;67239;51.680;5.976;2023-03-20T11:11:57;101827.84;;;10.83;69.96
66887;BME280;67239;51.680;5.976;2023-03-20T11:14:36;101830.44;;;10.87;70.01
66887;BME280;67239;51.680;5.976;2023-03-20T11:17:05;101832.94;;;10.95;70.26
66887;BME280;67239;51.680;5.976;2023-03-20T11:19:38;101836.31;;;11.03;70.00
66887;BME280;67239;51.680;5.976;2023-03-20T11:22:23;101828.28;;;11.11;70.85
66887;BME280;67239;51.680;5.976;2023-03-20T11:24:55;101829.88;;;11.22;70.06
66887;BME280;67239;51.680;5.976;2023-03-20T11:27:31;101828.97;;;11.23;70.21
66887;BME280;67239;51.680;5.976;2023-03-20T11:30:04;101818.31;;;11.29;70.89
66887;BME280;67239;51.680;5.976;2023-03-20T11:32:46;101810.22;;;11.38;70.78
66887;BME280;67239;51.680;5.976;2023-03-20T11:35:20;101805.75;;;11.42;70.98
66887;BME280;67239;51.680;5.976;2023-03-20T11:38:07;101810.03;;;11.49;70.59
66887;BME280;67239;51.680;5.976;2023-03-20T11:40:39;101804.59;;;11.58;70.01
66887;BME280;67239;51.680;5.976;2023-03-20T11:43:12;101804.50;;;11.61;69.53
66887;BME280;67239;51.680;5.976;2023-03-20T11:45:44;101794.13;;;11.52;68.59
66887;BME280;67239;51.680;5.976;2023-03-20T11:48:23;101799.44;;;11.50;68.63
66887;BME280;67239;51.680;5.976;2023-03-20T11:51:01;101803.88;;;11.48;69.31
66887;BME280;67239;51.680;5.976;2023-03-20T11:53:54;101802.13;;;11.47;69.24
66887;BME280;67239;51.680;5.976;2023-03-20T11:56:28;101806.47;;;11.50;69.75
66887;BME280;67239;51.680;5.976;2023-03-20T11:59:14;101811.69;;;11.53;69.54
66887;BME280;67239;51.680;5.976;2023-03-20T12:01:49;101809.88;;;11.57;69.61
66887;BME280;67239;51.680;5.976;2023-03-20T12:04:25;101804.59;;;11.58;69.73
66887;BME280;67239;51.680;5.976;2023-03-20T12:09:47;101794.69;;;11.70;69.57
66887;BME280;67239;51.680;5.976;2023-03-20T12:12:38;101795.44;;;11.75;69.20
66887;BME280;67239;51.680;5.976;2023-03-20T12:18:02;101782.09;;;11.83;68.82
66887;BME280;67239;51.680;5.976;2023-03-20T12:20:58;101783.69;;;11.90;68.48
66887;BME280;67239;51.680;5.976;2023-03-20T12:24:25;101773.00;;;11.98;67.58
66887;BME280;67239;51.680;5.976;2023-03-20T12:26:49;101772.97;;;11.99;67.90
66887;BME280;67239;51.680;5.976;2023-03-20T12:29:39;101779.84;;;12.08;68.19
66887;BME280;67239;51.680;5.976;2023-03-20T12:35:04;101771.59;;;12.22;67.39
66887;BME280;67239;51.680;5.976;2023-03-20T12:37:42;101771.53;;;12.25;67.85
66887;BME280;67239;51.680;5.976;2023-03-20T12:40:15;101771.44;;;12.30;67.72
66887;BME280;67239;51.680;5.976;2023-03-20T12:45:22;101762.78;;;12.21;68.25
66887;BME280;67239;51.680;5.976;2023-03-20T12:51:40;101768.75;;;12.31;68.12
66887;BME280;67239;51.680;5.976;2023-03-20T13:00:56;101761.75;;;12.29;67.73
66887;BME280;67239;51.680;5.976;2023-03-20T13:06:12;101750.50;;;12.20;68.17
66887;BME280;67239;51.680;5.976;2023-03-20T13:17:58;101737.59;;;12.44;68.07
66887;BME280;67239;51.680;5.976;2023-03-20T13:20:53;101730.25;;;12.55;68.31
66887;BME280;67239;51.680;5.976;2023-03-20T13:23:30;101731.81;;;12.64;68.52
66887;BME280;67239;51.680;5.976;2023-03-20T13:29:11;101717.53;;;12.71;68.07
66887;BME280;67239;51.680;5.976;2023-03-20T13:31:50;101722.88;;;12.68;67.75
66887;BME280;67239;51.680;5.976;2023-03-20T13:37:20;101730.53;;;12.45;67.14
66887;BME280;67239;51.680;5.976;2023-03-20T13:40:13;101726.47;;;12.30;67.11
66887;BME280;67239;51.680;5.976;2023-03-20T13:42:55;101724.16;;;12.16;67.70
66887;BME280;67239;51.680;5.976;2023-03-20T13:45:43;101720.75;;;12.10;68.23
66887;BME280;67239;51.680;5.976;2023-03-20T13:48:28;101718.16;;;12.07;68.28
66887;BME280;67239;51.680;5.976;2023-03-20T13:51:09;101722.69;;;12.02;68.41
66887;BME280;67239;51.680;5.976;2023-03-20T13:54:11;101703.34;;;12.00;68.92
66887;BME280;67239;51.680;5.976;2023-03-20T13:56:56;101703.34;;;12.00;69.25
66887;BME280;67239;51.680;5.976;2023-03-20T13:59:53;101699.75;;;12.03;68.80
66887;BME280;67239;51.680;5.976;2023-03-20T14:03:28;101685.69;;;12.02;68.74
66887;BME280;67239;51.680;5.976;2023-03-20T14:05:56;101691.03;;;11.99;68.96
66887;BME280;67239;51.680;5.976;2023-03-20T14:14:01;101691.84;;;12.03;69.53
66887;BME280;67239;51.680;5.976;2023-03-20T14:16:38;101683.06;;;12.01;69.76
66887;BME280;67239;51.680;5.976;2023-03-20T14:19:16;101692.84;;;11.95;70.10
66887;BME280;67239;51.680;5.976;2023-03-20T14:21:51;101696.50;;;11.90;70.56
66887;BME280;67239;51.680;5.976;2023-03-20T14:24:22;101686.09;;;11.82;70.86
66887;BME280;67239;51.680;5.976;2023-03-20T14:27:17;101693.28;;;11.75;71.03
66887;BME280;67239;51.680;5.976;2023-03-20T14:30:35;101683.91;;;11.62;70.85
66887;BME280;67239;51.680;5.976;2023-03-20T14:33:23;101679.88;;;11.44;71.31
66887;BME280;67239;51.680;5.976;2023-03-20T14:36:15;101677.56;;;11.27;71.85
66887;BME280;67239;51.680;5.976;2023-03-20T14:50:33;101664.31;;;10.83;74.13
66887;BME280;67239;51.680;5.976;2023-03-20T14:53:13;101655.59;;;10.79;74.81
66887;BME280;67239;51.680;5.976;2023-03-20T15:01:08;101647.84;;;10.70;75.96
66887;BME280;67239;51.680;5.976;2023-03-20T15:03:49;101648.75;;;10.69;75.77
66887;BME280;67239;51.680;5.976;2023-03-20T15:06:20;101649.72;;;10.63;75.99
66887;BME280;67239;51.680;5.976;2023-03-20T15:08:57;101646.28;;;10.60;76.29
66887;BME280;67239;51.680;5.976;2023-03-20T15:11:30;101647.28;;;10.52;76.72
66887;BME280;67239;51.680;5.976;2023-03-20T15:13:57;101649.97;;;10.49;76.81
66887;BME280;67239;51.680;5.976;2023-03-20T15:16:30;101643.84;;;10.47;77.10
66887;BME280;67239;51.680;5.976;2023-03-20T15:19:00;101648.22;;;10.48;77.36
66887;BME280;67239;51.680;5.976;2023-03-20T15:21:32;101648.19;;;10.50;77.50
66887;BME280;67239;51.680;5.976;2023-03-20T15:24:03;101638.53;;;10.50;77.81
66887;BME280;67239;51.680;5.976;2023-03-20T15:26:32;101641.97;;;10.54;77.95
66887;BME280;67239;51.680;5.976;2023-03-20T15:29:06;101638.44;;;10.53;77.62
66887;BME280;67239;51.680;5.976;2023-03-20T15:31:39;101640.22;;;10.53;77.78
66887;BME280;67239;51.680;5.976;2023-03-20T15:34:19;101639.31;;;10.55;77.64
66887;BME280;67239;51.680;5.976;2023-03-20T15:36:49;101638.44;;;10.53;77.55
66887;BME280;67239;51.680;5.976;2023-03-20T15:39:23;101641.13;;;10.52;77.50
66887;BME280;67239;51.680;5.976;2023-03-20T15:41:58;101646.41;;;10.52;77.69